Time;durP1;ratioP1;P1;durP2;ratioP2;P2;SDS_P1;SDS_P2;PMS_P1;PMS_P2;Temp;Humidity;BMP_temperature;BMP_pressure;BME280_temperature;BME280_humidity;BME280_pressure;Samples;Min_cycle;Max_cycle;Signal;HPM_P1;HPM_P2
2023/10/14 00:01:13;;;;;;;5.20;4.33;;;22.00;78.30;23.00;99349.00;;;;5069145;28;20208;-48
2023/10/14 00:03:50;;;;;;;4.80;4.40;;;21.90;78.20;23.00;99349.00;;;;5068030;28;20721;-47
2023/10/14 00:06:18;;;;;;;4.50;4.10;;;22.00;78.30;23.00;99358.00;;;;5076918;28;20299;-54
2023/10/14 00:08:59;;;;;;;4.60;4.20;;;21.90;78.20;23.00;99347.00;;;;5068711;28;20239;-47
2023/10/14 00:11:43;;;;;;;4.63;4.23;;;22.00;78.30;23.00;99275.00;;;;5067988;28;20190;-47
2023/10/14 00:14:16;;;;;;;4.80;4.40;;;22.00;78.30;23.00;99344.00;;;;5069248;28;20177;-47
2023/10/14 00:16:42;;;;;;;4.70;4.30;;;21.90;78.10;23.00;99342.00;;;;5069913;28;20367;-49
2023/10/14 00:19:09;;;;;;;4.70;4.30;;;22.00;78.20;23.00;99344.00;;;;5061230;28;20663;-48
2023/10/14 00:21:35;;;;;;;4.87;4.40;;;21.90;78.10;23.00;99336.00;;;;5078798;28;20246;-48
2023/10/14 00:24:06;;;;;;;4.67;4.27;;;21.90;78.20;23.00;99326.00;;;;5046914;28;20170;-47
2023/10/14 00:26:32;;;;;;;5.07;4.57;;;21.90;78.20;23.00;99331.00;;;;5046701;28;20255;-47
2023/10/14 00:29:17;;;;;;;4.80;4.30;;;22.00;78.30;23.00;99336.00;;;;5046259;28;20185;-47
2023/10/14 00:31:44;;;;;;;4.90;4.50;;;21.90;78.20;23.00;99338.00;;;;5046513;28;20648;-49
2023/10/14 00:34:09;;;;;;;4.73;4.33;;;21.90;78.20;23.00;99345.00;;;;5045316;28;20182;-47
2023/10/14 00:36:35;;;;;;;9.17;5.83;;;21.90;78.30;23.00;99313.00;;;;5061895;28;20504;-47
2023/10/14 00:39:04;;;;;;;13.40;7.53;;;21.80;78.30;22.80;99330.00;;;;5068212;28;20224;-53
2023/10/14 00:41:36;;;;;;;12.50;8.07;;;21.20;79.50;22.70;99381.00;;;;5068205;28;20758;-47
2023/10/14 00:44:02;;;;;;;11.80;8.20;;;21.00;81.30;22.50;99372.00;;;;5068448;28;20193;-46
2023/10/14 00:46:31;;;;;;;10.97;8.10;;;20.60;84.20;22.30;99368.00;;;;5068120;28;20248;-47
2023/10/14 00:49:01;;;;;;;12.90;8.73;;;20.20;85.30;22.10;99385.00;;;;5068199;28;20257;-47
2023/10/14 00:51:27;;;;;;;12.07;8.10;;;20.20;86.40;21.90;99361.00;;;;5067211;28;20190;-47
2023/10/14 00:53:55;;;;;;;13.50;8.33;;;20.00;86.80;21.80;99385.00;;;;5050336;28;20607;-46
2023/10/14 00:56:27;;;;;;;15.73;9.03;;;20.00;87.10;21.70;99383.00;;;;5066871;28;20182;-46
2023/10/14 00:59:03;;;;;;;11.23;7.83;;;19.90;87.50;21.60;99387.00;;;;5060610;28;20440;-46
2023/10/14 01:01:31;;;;;;;13.07;8.47;;;19.90;87.70;21.60;99386.00;;;;5066484;28;20575;-46
2023/10/14 01:04:08;;;;;;;11.73;8.20;;;19.90;87.90;21.50;99379.00;;;;5068056;28;20182;-46
2023/10/14 01:06:34;;;;;;;12.97;8.60;;;19.90;87.50;21.50;99379.00;;;;5067321;28;20282;-46
2023/10/14 01:09:10;;;;;;;11.83;8.30;;;20.10;87.20;21.50;99388.00;;;;5070634;28;20220;-46
2023/10/14 01:11:41;;;;;;;9.67;7.90;;;19.90;87.00;21.40;99374.00;;;;5070986;28;20592;-46
2023/10/14 01:14:08;;;;;;;10.70;7.20;;;20.00;86.10;21.40;99392.00;;;;5072151;28;20177;-47
2023/10/14 01:16:41;;;;;;;9.10;7.47;;;19.90;86.30;21.40;99389.00;;;;5054446;28;20193;-46
2023/10/14 01:19:11;;;;;;;13.20;7.20;;;19.90;86.40;21.30;99387.00;;;;5072229;28;20182;-46
2023/10/14 01:21:38;;;;;;;8.77;7.33;;;19.80;86.10;21.30;99397.00;;;;5063718;28;20205;-47
2023/10/14 01:24:15;;;;;;;13.50;7.63;;;20.00;85.70;21.20;99398.00;;;;5072143;28;20239;-46
2023/10/14 01:27:05;;;;;;;9.37;6.93;;;19.70;85.70;21.10;99371.00;;;;5072133;28;20890;-46
2023/10/14 01:29:31;;;;;;;10.17;7.03;;;19.70;86.30;21.10;99381.00;;;;5070776;28;20193;-46
2023/10/14 01:32:24;;;;;;;13.53;6.90;;;19.70;86.00;21.10;99378.00;;;;5071791;28;20260;-47
2023/10/14 01:34:55;;;;;;;9.97;6.97;;;19.60;85.60;21.00;99362.00;;;;5070546;28;20178;-47
2023/10/14 01:37:26;;;;;;;9.00;6.60;;;19.60;85.70;21.00;99375.00;;;;5071506;28;20185;-46
2023/10/14 01:39:56;;;;;;;8.93;6.50;;;19.70;85.40;21.00;99369.00;;;;5071360;28;20288;-47
2023/10/14 01:42:23;;;;;;;7.53;6.23;;;19.60;85.70;20.70;99377.00;;;;5071599;28;20185;-47
2023/10/14 01:44:53;;;;;;;10.10;6.57;;;19.60;85.40;21.00;99378.00;;;;5071366;28;20193;-47
2023/10/14 01:47:43;;;;;;;10.53;6.43;;;19.70;86.10;21.00;99379.00;;;;5071594;28;20655;-47
2023/10/14 01:50:12;;;;;;;9.33;6.47;;;19.60;86.30;21.00;99376.00;;;;5071293;28;20197;-47
2023/10/14 01:52:39;;;;;;;10.57;6.77;;;19.70;86.40;21.00;99386.00;;;;5071375;28;20193;-47
2023/10/14 01:55:05;;;;;;;8.53;6.03;;;19.50;87.10;20.90;99384.00;;;;5079779;28;20204;-46
2023/10/14 01:57:31;;;;;;;8.27;6.03;;;19.40;88.30;20.80;99370.00;;;;5084688;28;20659;-46
2023/10/14 01:59:57;;;;;;;8.03;5.73;;;19.50;88.20;20.90;99375.00;;;;5072264;28;20205;-47
2023/10/14 02:02:22;;;;;;;5.70;5.10;;;19.40;88.70;20.80;99359.00;;;;5072572;28;20245;-46
2023/10/14 02:04:56;;;;;;;6.70;5.50;;;19.50;88.00;20.80;99355.00;;;;5054172;28;20177;-47
2023/10/14 02:07:22;;;;;;;6.70;5.07;;;19.40;88.10;20.90;99374.00;;;;5061920;28;20181;-47
2023/10/14 02:09:48;;;;;;;6.57;5.30;;;19.40;88.70;20.80;99367.00;;;;5064845;28;20480;-47
2023/10/14 02:12:15;;;;;;;8.07;5.00;;;19.30;89.20;20.80;99386.00;;;;5073987;28;20201;-47
2023/10/14 02:14:44;;;;;;;7.67;4.90;;;19.20;89.30;20.80;99401.00;;;;5070659;28;20652;-47
2023/10/14 02:17:11;;;;;;;6.73;4.10;;;19.50;88.60;20.80;99406.00;;;;5071198;28;20445;-47
2023/10/14 02:19:36;;;;;;;6.20;4.00;;;19.40;89.60;20.80;99408.00;;;;5069383;28;20189;-46
2023/10/14 02:22:11;;;;;;;4.37;3.20;;;19.30;90.20;20.70;99436.00;;;;5071205;28;20256;-46
2023/10/14 02:24:37;;;;;;;3.83;2.93;;;19.00;90.70;20.60;99469.00;;;;5071187;28;20192;-46
2023/10/14 02:27:13;;;;;;;4.10;3.03;;;19.30;89.80;20.70;99475.00;;;;5039215;28;20201;-46
2023/10/14 02:29:51;;;;;;;3.23;2.40;;;19.60;88.00;20.70;99486.00;;;;5050416;28;20228;-47
2023/10/14 02:32:20;;;;;;;2.77;2.30;;;19.80;86.00;20.80;99498.00;;;;5050727;28;20647;-47
2023/10/14 02:34:46;;;;;;;4.43;2.10;;;20.00;84.90;20.90;99512.00;;;;5050577;28;20200;-46
2023/10/14 02:37:14;;;;;;;1.93;1.73;;;20.00;84.30;20.90;99516.00;;;;5050935;28;20206;-47
2023/10/14 02:39:43;;;;;;;1.50;1.40;;;20.10;83.20;21.00;99510.00;;;;5050018;28;20198;-48
2023/10/14 02:42:09;;;;;;;1.73;1.50;;;20.10;80.70;21.00;99535.00;;;;5049109;28;20209;-47
2023/10/14 02:44:52;;;;;;;1.40;1.30;;;20.10;81.90;21.00;99531.00;;;;5050561;28;20194;-47
2023/10/14 02:47:19;;;;;;;1.10;1.07;;;20.20;81.50;21.00;99540.00;;;;5050568;28;20210;-48
2023/10/14 02:49:53;;;;;;;1.30;1.20;;;20.30;81.00;21.10;99548.00;;;;5049933;28;20300;-47
2023/10/14 02:52:19;;;;;;;1.47;1.00;;;20.20;80.40;21.10;99556.00;;;;5050256;28;20181;-47
2023/10/14 02:54:54;;;;;;;1.40;1.30;;;20.20;79.90;21.10;99557.00;;;;5050272;28;20167;-46
2023/10/14 02:59:46;;;;;;;1.10;1.00;;;20.40;79.00;21.10;99587.00;;;;5049170;28;20206;-48
2023/10/14 03:07:29;;;;;;;0.80;0.80;;;20.20;79.70;21.20;99611.00;;;;5059346;28;20701;-48
2023/10/14 03:12:48;;;;;;;0.83;0.80;;;20.30;79.50;21.20;99630.00;;;;5056172;28;20231;-49
2023/10/14 03:15:20;;;;;;;3.33;1.00;;;20.30;79.30;21.20;99645.00;;;;5062230;28;20644;-50
2023/10/14 03:17:55;;;;;;;1.10;1.00;;;20.30;78.30;21.20;99644.00;;;;5069776;28;20228;-49
2023/10/14 03:23:12;;;;;;;0.90;0.87;;;20.30;78.70;21.20;99653.00;;;;5069653;28;20180;-49
2023/10/14 03:25:38;;;;;;;1.03;1.00;;;20.40;78.60;21.20;99654.00;;;;5070374;28;20690;-49
2023/10/14 03:28:19;;;;;;;1.40;0.97;;;20.40;78.00;21.30;99654.00;;;;5052563;28;20182;-49
2023/10/14 03:30:55;;;;;;;1.00;0.90;;;20.40;76.80;21.20;99663.00;;;;5069679;28;20254;-50
2023/10/14 03:33:21;;;;;;;1.07;0.97;;;20.10;78.30;21.20;99678.00;;;;5070879;28;20193;-49
2023/10/14 03:36:04;;;;;;;1.67;0.90;;;20.30;78.80;21.20;99701.00;;;;5070544;28;20264;-49
2023/10/14 03:38:39;;;;;;;0.97;0.97;;;20.10;77.40;21.20;99704.00;;;;5070169;28;20224;-51
2023/10/14 03:41:21;;;;;;;1.10;0.93;;;19.90;79.00;21.20;99724.00;;;;5066364;28;20199;-49
2023/10/14 03:43:58;;;;;;;1.37;1.10;;;19.90;79.20;21.00;99730.00;;;;5065448;28;20181;-49
2023/10/14 03:46:32;;;;;;;2.23;1.20;;;19.40;80.30;20.90;99772.00;;;;5066731;28;20307;-49
2023/10/14 03:49:06;;;;;;;1.53;1.27;;;19.40;80.90;20.90;99762.00;;;;5068834;28;20174;-49
2023/10/14 03:51:31;;;;;;;2.73;1.60;;;19.60;78.10;20.90;99788.00;;;;5070285;28;20197;-50
2023/10/14 03:54:01;;;;;;;2.60;1.50;;;19.80;78.80;20.90;99787.00;;;;5070220;28;20179;-49
2023/10/14 03:56:31;;;;;;;1.80;1.20;;;20.00;78.70;20.90;99788.00;;;;5077190;28;20199;-50
2023/10/14 03:59:01;;;;;;;3.10;1.13;;;20.10;77.40;20.90;99812.00;;;;5085891;28;20264;-50
2023/10/14 04:02:19;;;;;;;3.20;1.80;;;20.20;77.20;21.00;99825.00;;;;5070177;28;20209;-55
2023/10/14 04:04:21;;;;;;;3.00;1.40;;;20.10;77.20;21.00;99829.00;;;;5052873;28;20201;-50
2023/10/14 04:09:44;;;;;;;9.27;2.07;;;20.10;76.50;21.00;99860.00;;;;5068737;28;20173;-49
2023/10/14 04:12:29;;;;;;;3.10;1.80;;;20.10;75.00;21.00;99872.00;;;;5087000;28;20166;-59
2023/10/14 04:15:05;;;;;;;6.07;1.80;;;20.10;77.20;21.00;99880.00;;;;5073069;28;20248;-50
2023/10/14 04:17:31;;;;;;;3.80;2.20;;;20.00;75.10;20.90;99885.00;;;;5072337;28;20865;-49
2023/10/14 04:22:41;;;;;;;4.33;2.20;;;20.20;75.00;20.90;99895.00;;;;5068782;28;20545;-48
2023/10/14 04:27:45;;;;;;;6.07;2.57;;;20.20;74.50;20.90;99908.00;;;;5069776;28;20185;-49
2023/10/14 04:30:13;;;;;;;5.10;2.30;;;20.20;73.50;20.90;99901.00;;;;5060904;28;20687;-50
2023/10/14 04:32:42;;;;;;;4.63;2.20;;;20.20;73.30;20.90;99905.00;;;;5057464;28;20178;-49
2023/10/14 04:35:12;;;;;;;6.03;2.40;;;20.20;72.30;21.00;99914.00;;;;5064209;28;20181;-49
2023/10/14 04:37:53;;;;;;;4.60;2.10;;;20.20;73.60;20.90;99918.00;;;;5067932;28;20220;-49
2023/10/14 04:43:19;;;;;;;5.00;2.20;;;20.20;72.30;21.00;99937.00;;;;5056500;28;20596;-50
2023/10/14 04:46:14;;;;;;;3.67;2.30;;;20.10;73.30;20.90;99945.00;;;;5069081;28;20209;-49
2023/10/14 04:48:40;;;;;;;3.17;2.03;;;20.20;72.30;20.90;99949.00;;;;5063311;28;20190;-48
2023/10/14 04:51:08;;;;;;;4.20;2.17;;;20.00;73.30;20.90;99956.00;;;;5067602;28;20201;-49
2023/10/14 04:53:34;;;;;;;3.43;2.30;;;20.10;72.90;20.90;99958.00;;;;5068982;28;20557;-49
2023/10/14 04:56:20;;;;;;;6.07;2.60;;;20.00;72.30;20.90;99971.00;;;;5067080;28;20196;-49
2023/10/14 04:58:47;;;;;;;8.20;2.77;;;20.10;72.40;20.90;99973.00;;;;5063099;28;20181;-50
2023/10/14 05:01:18;;;;;;;7.27;2.67;;;19.90;71.80;20.90;99990.00;;;;5064905;28;20216;-53
2023/10/14 05:03:46;;;;;;;5.50;2.53;;;19.90;72.50;20.80;100002.00;;;;5068911;28;20189;-49
2023/10/14 05:08:49;;;;;;;5.17;2.53;;;19.80;71.70;20.80;100004.00;;;;5062983;28;20183;-49
2023/10/14 05:11:18;;;;;;;5.43;2.73;;;19.70;72.30;20.80;100007.00;;;;5060347;28;20208;-49
2023/10/14 05:13:56;;;;;;;6.77;2.50;;;19.60;72.20;20.70;100021.00;;;;5059977;28;20215;-50
2023/10/14 05:16:22;;;;;;;5.87;2.67;;;19.60;72.60;20.70;100026.00;;;;5061929;28;20341;-49
2023/10/14 05:19:04;;;;;;;7.47;2.90;;;19.60;71.20;20.70;100036.00;;;;5055165;28;20178;-48
2023/10/14 05:21:36;;;;;;;5.53;2.70;;;19.50;71.90;20.60;100046.00;;;;5057475;28;20232;-49
2023/10/14 05:24:10;;;;;;;5.33;2.47;;;18.90;70.70;20.50;100046.00;;;;5066579;28;20178;-49
2023/10/14 05:26:46;;;;;;;6.60;3.03;;;19.00;73.70;20.40;99985.00;;;;5068889;28;20211;-49
2023/10/14 05:29:19;;;;;;;5.63;2.70;;;19.10;71.50;20.30;100064.00;;;;5062975;28;20181;-49
2023/10/14 05:31:48;;;;;;;5.90;2.63;;;18.90;71.20;20.30;100068.00;;;;5063216;28;20690;-49
2023/10/14 05:34:15;;;;;;;5.33;2.57;;;19.20;73.00;20.30;100069.00;;;;5065981;28;20191;-49
2023/10/14 05:36:41;;;;;;;5.47;2.50;;;19.30;73.00;20.30;100081.00;;;;5068542;28;20651;-50
2023/10/14 05:39:10;;;;;;;6.40;2.70;;;19.30;72.00;20.30;100076.00;;;;5051447;28;20191;-51
2023/10/14 05:41:36;;;;;;;5.70;2.70;;;19.40;72.30;20.40;100083.00;;;;5052609;28;20285;-51
2023/10/14 05:44:04;;;;;;;7.20;3.13;;;19.40;71.20;20.30;100078.00;;;;5059000;28;20197;-49
2023/10/14 05:46:30;;;;;;;5.13;2.60;;;19.20;71.10;20.30;100086.00;;;;5066510;28;20209;-50
2023/10/14 05:48:56;;;;;;;5.90;2.53;;;19.30;71.30;20.30;100088.00;;;;5062814;28;20180;-50
2023/10/14 05:51:22;;;;;;;9.10;2.90;;;19.20;71.20;20.30;100100.00;;;;5068744;28;20197;-53
2023/10/14 05:53:49;;;;;;;5.87;2.60;;;19.10;70.30;20.20;100094.00;;;;5078227;28;20179;-49
2023/10/14 05:56:14;;;;;;;7.73;3.03;;;19.30;71.90;20.20;100105.00;;;;5088558;28;20177;-50
2023/10/14 05:58:48;;;;;;;7.13;3.07;;;19.20;69.10;20.10;100123.00;;;;5067786;28;20798;-49
2023/10/14 06:01:19;;;;;;;4.60;2.77;;;18.70;70.00;20.00;100133.00;;;;5068841;28;20598;-50
2023/10/14 06:03:45;;;;;;;8.03;2.53;;;18.30;71.10;19.90;100130.00;;;;5064352;28;20205;-49
2023/10/14 06:06:14;;;;;;;6.60;2.90;;;18.40;72.00;19.90;100143.00;;;;5069692;28;20320;-48
2023/10/14 06:08:40;;;;;;;6.70;2.90;;;18.60;72.30;19.90;100157.00;;;;5074473;28;20186;-50
2023/10/14 06:11:06;;;;;;;5.67;2.70;;;18.60;73.20;19.90;100157.00;;;;5073062;28;20235;-49
2023/10/14 06:13:33;;;;;;;5.23;2.63;;;18.50;71.20;19.90;100174.00;;;;5059817;28;20175;-49
2023/10/14 06:16:04;;;;;;;7.87;3.23;;;18.40;72.00;19.80;100174.00;;;;5052263;28;20182;-49
2023/10/14 06:18:33;;;;;;;8.13;3.00;;;18.40;71.90;19.80;100181.00;;;;5056973;28;20235;-50
2023/10/14 06:20:59;;;;;;;7.77;3.10;;;18.30;71.70;19.70;100181.00;;;;5051061;28;20212;-50
2023/10/14 06:23:28;;;;;;;6.70;3.07;;;18.20;72.70;19.60;100182.00;;;;5068673;28;20190;-49
2023/10/14 06:25:55;;;;;;;8.33;2.80;;;17.70;71.40;19.40;100186.00;;;;5071829;28;20209;-49
2023/10/14 06:28:21;;;;;;;7.20;3.10;;;17.40;73.60;19.30;100185.00;;;;5066005;28;20204;-49
2023/10/14 06:30:46;;;;;;;7.07;3.13;;;17.50;73.80;19.20;100200.00;;;;5070076;28;20227;-49
2023/10/14 06:33:12;;;;;;;8.37;3.17;;;17.50;72.90;19.10;100202.00;;;;5068069;28;20186;-49
2023/10/14 06:35:42;;;;;;;6.53;2.90;;;17.10;73.50;19.00;100202.00;;;;5070135;28;20205;-49
2023/10/14 06:38:09;;;;;;;6.40;3.37;;;17.30;73.80;18.90;100209.00;;;;5067126;28;20261;-49
2023/10/14 06:40:36;;;;;;;7.30;3.33;;;17.00;73.60;18.80;100212.00;;;;5069772;28;20201;-49
2023/10/14 06:43:06;;;;;;;9.50;2.97;;;16.80;74.40;18.70;100212.00;;;;5070982;28;20196;-49
2023/10/14 06:45:33;;;;;;;7.23;3.23;;;17.10;74.60;18.70;100237.00;;;;5067776;28;20588;-49
2023/10/14 06:47:59;;;;;;;8.70;3.00;;;17.30;74.00;18.70;100239.00;;;;5061229;28;20193;-49
2023/10/14 06:50:25;;;;;;;8.07;2.90;;;17.10;73.70;18.70;100233.00;;;;5067827;28;20190;-48
2023/10/14 06:52:58;;;;;;;6.53;3.10;;;17.10;74.20;18.60;100236.00;;;;5071241;28;20239;-48
2023/10/14 06:55:26;;;;;;;8.27;3.07;;;17.00;72.90;18.60;100241.00;;;;5060741;28;20194;-49
2023/10/14 06:57:55;;;;;;;9.30;3.07;;;17.10;72.80;18.60;100247.00;;;;5069143;28;20243;-49
2023/10/14 07:00:31;;;;;;;8.07;4.00;;;17.00;72.80;18.50;100250.00;;;;5067090;28;20580;-49
2023/10/14 07:03:01;;;;;;;9.20;3.33;;;17.00;73.30;18.40;100253.00;;;;5069829;28;20580;-50
2023/10/14 07:05:30;;;;;;;9.13;3.77;;;16.50;73.00;18.30;100264.00;;;;5071011;28;20201;-50
2023/10/14 07:07:57;;;;;;;6.37;3.00;;;16.60;74.00;18.30;100266.00;;;;5068264;28;20237;-50
2023/10/14 07:10:32;;;;;;;5.33;2.90;;;17.00;75.30;18.40;100268.00;;;;5066286;28;20248;-51
2023/10/14 07:12:58;;;;;;;6.97;2.70;;;17.40;74.60;18.50;100272.00;;;;5069178;28;20561;-50
2023/10/14 07:15:31;;;;;;;5.87;2.70;;;17.70;73.90;18.70;100274.00;;;;5070406;28;20833;-50
2023/10/14 07:17:58;;;;;;;8.20;3.03;;;18.00;73.50;18.80;100284.00;;;;5067311;28;20323;-50
2023/10/14 07:20:25;;;;;;;6.63;2.90;;;18.10;73.00;18.90;100284.00;;;;5067275;28;20213;-50
2023/10/14 07:22:50;;;;;;;5.37;2.63;;;18.30;72.90;19.00;100295.00;;;;5069944;28;20185;-50
2023/10/14 07:25:18;;;;;;;4.43;2.63;;;18.40;72.70;19.10;100293.00;;;;5070205;28;20223;-50
2023/10/14 07:27:44;;;;;;;6.17;2.50;;;18.50;72.60;19.20;100292.00;;;;5061821;28;20414;-50
2023/10/14 07:30:16;;;;;;;5.07;2.80;;;18.50;72.40;19.20;100291.00;;;;5064963;28;20206;-50
2023/10/14 07:32:43;;;;;;;5.07;2.83;;;18.60;72.30;19.30;100299.00;;;;5070722;28;20180;-50
2023/10/14 07:35:11;;;;;;;3.33;2.40;;;18.60;72.30;19.40;100300.00;;;;5069016;28;20574;-50
2023/10/14 07:37:46;;;;;;;5.50;2.40;;;18.70;72.30;19.40;100312.00;;;;5068632;28;20635;-50
2023/10/14 07:40:22;;;;;;;5.97;2.67;;;18.70;72.30;19.50;100318.00;;;;5064690;28;20223;-49
2023/10/14 07:42:56;;;;;;;4.73;2.40;;;18.80;72.30;19.50;100319.00;;;;5052582;28;20208;-49
2023/10/14 07:45:28;;;;;;;4.30;2.40;;;18.80;72.30;19.60;100323.00;;;;5070123;28;20326;-50
2023/10/14 07:47:57;;;;;;;4.70;2.83;;;18.80;72.40;19.70;100336.00;;;;5057368;28;20198;-50
2023/10/14 07:50:24;;;;;;;4.03;2.50;;;18.90;72.60;19.70;100335.00;;;;5066432;28;20201;-50
2023/10/14 07:52:51;;;;;;;4.27;2.50;;;18.90;72.50;19.50;100334.00;;;;5089061;28;20242;-51
2023/10/14 07:55:32;;;;;;;4.20;2.40;;;19.00;72.60;19.80;100335.00;;;;5071579;28;20185;-51
2023/10/14 07:58:00;;;;;;;4.93;2.60;;;19.00;72.60;19.80;100347.00;;;;5067656;28;20261;-50
2023/10/14 08:00:37;;;;;;;4.27;2.40;;;19.00;72.80;19.90;100344.00;;;;5068477;28;20237;-52
2023/10/14 08:03:06;;;;;;;3.43;2.30;;;19.10;72.90;19.90;100350.00;;;;5074671;28;20703;-50
2023/10/14 08:05:37;;;;;;;3.90;2.27;;;19.10;73.00;19.90;100356.00;;;;5074993;28;20193;-50
2023/10/14 08:08:07;;;;;;;3.83;2.40;;;19.10;73.00;20.00;100351.00;;;;5071373;28;20187;-49
2023/10/14 08:10:34;;;;;;;3.97;2.37;;;19.10;73.30;20.00;100354.00;;;;5069651;28;20192;-49
2023/10/14 08:13:07;;;;;;;5.53;2.30;;;19.10;73.40;20.00;100365.00;;;;5069158;28;20702;-50
2023/10/14 08:15:35;;;;;;;3.57;2.50;;;19.20;73.80;20.00;100365.00;;;;5068875;28;20185;-49
2023/10/14 08:18:04;;;;;;;3.87;2.37;;;19.20;73.90;20.00;100359.00;;;;5066472;28;20176;-50
2023/10/14 08:20:36;;;;;;;3.73;2.23;;;19.20;74.00;20.10;100371.00;;;;5066351;28;20208;-51
2023/10/14 08:23:09;;;;;;;2.80;2.17;;;19.20;73.90;20.10;100374.00;;;;5067675;28;20185;-50
2023/10/14 08:25:39;;;;;;;3.90;2.40;;;19.20;74.10;20.10;100373.00;;;;5067241;28;20244;-50
2023/10/14 08:28:08;;;;;;;3.17;2.17;;;19.20;75.10;20.10;100373.00;;;;5059516;28;20240;-50
2023/10/14 08:30:45;;;;;;;3.60;2.27;;;19.20;74.50;20.10;100392.00;;;;5061423;28;20247;-51
2023/10/14 08:33:14;;;;;;;4.27;2.40;;;19.20;74.40;20.10;100396.00;;;;5057423;28;20725;-50
2023/10/14 08:35:42;;;;;;;3.07;2.00;;;19.30;74.70;20.10;100385.00;;;;5067299;28;20782;-50
2023/10/14 08:38:19;;;;;;;4.13;2.20;;;19.30;74.80;20.10;100398.00;;;;5054262;28;20178;-50
2023/10/14 08:40:46;;;;;;;4.87;2.30;;;19.30;74.80;20.10;100402.00;;;;5068833;28;20240;-50
2023/10/14 08:43:18;;;;;;;3.50;2.20;;;19.30;74.90;20.10;100407.00;;;;5068917;28;20185;-51
2023/10/14 08:45:49;;;;;;;4.13;2.37;;;19.30;74.90;20.10;100407.00;;;;5070099;28;20594;-50
2023/10/14 08:48:16;;;;;;;2.90;2.20;;;19.30;74.90;20.10;100409.00;;;;5063631;28;20185;-50
2023/10/14 08:50:42;;;;;;;3.97;2.23;;;19.30;74.90;20.10;100420.00;;;;5066866;28;20283;-50
2023/10/14 08:53:13;;;;;;;4.73;2.43;;;19.30;74.80;20.20;100428.00;;;;5068742;28;20679;-51
2023/10/14 08:55:39;;;;;;;3.53;2.30;;;19.30;74.70;20.10;100423.00;;;;5068937;28;20185;-50
2023/10/14 08:58:06;;;;;;;3.70;2.00;;;19.30;74.70;20.20;100432.00;;;;5058496;28;20239;-50
2023/10/14 09:00:36;;;;;;;3.73;2.20;;;19.30;74.70;20.20;100427.00;;;;5052512;28;20196;-51
2023/10/14 09:03:05;;;;;;;4.77;2.33;;;19.30;74.70;20.20;100427.00;;;;5068463;28;20552;-50
2023/10/14 09:05:31;;;;;;;4.10;2.37;;;19.30;74.70;20.20;100429.00;;;;5068792;28;20228;-50
2023/10/14 09:07:59;;;;;;;3.67;2.10;;;19.30;74.50;20.20;100433.00;;;;5066213;28;20186;-50
2023/10/14 09:10:25;;;;;;;4.33;2.30;;;19.40;74.70;20.20;100450.00;;;;5064381;28;20278;-51
2023/10/14 09:13:05;;;;;;;5.07;2.50;;;19.40;74.70;20.20;100456.00;;;;5068498;28;20168;-52
2023/10/14 09:15:41;;;;;;;3.13;2.00;;;19.30;74.60;20.20;100454.00;;;;5056426;28;20178;-50
2023/10/14 09:18:27;;;;;;;3.67;2.20;;;19.30;74.50;20.20;100460.00;;;;5063339;28;20197;-50
2023/10/14 09:20:56;;;;;;;3.00;2.23;;;19.40;74.60;20.20;100457.00;;;;5051117;28;20200;-50
2023/10/14 09:23:24;;;;;;;6.17;2.30;;;19.40;74.50;20.20;100459.00;;;;5046331;28;20653;-50
2023/10/14 09:25:58;;;;;;;3.63;2.40;;;19.40;74.50;20.10;100461.00;;;;5053059;28;20205;-51
2023/10/14 09:28:26;;;;;;;3.73;2.27;;;19.40;74.50;20.20;100461.00;;;;5061177;28;20723;-50
2023/10/14 09:30:56;;;;;;;3.50;2.23;;;19.40;74.40;20.20;100477.00;;;;5069324;28;20592;-53
2023/10/14 09:33:34;;;;;;;6.73;2.23;;;19.40;74.70;20.20;100465.00;;;;5066024;28;20403;-54
2023/10/14 09:36:18;;;;;;;6.77;2.53;;;19.40;74.50;20.20;100464.00;;;;5058424;28;20175;-52
2023/10/14 09:38:48;;;;;;;11.77;3.13;;;19.40;74.70;20.20;100473.00;;;;5066650;28;20300;-54
2023/10/14 09:41:15;;;;;;;7.50;2.57;;;19.40;74.70;20.20;100482.00;;;;5072532;28;20715;-53
2023/10/14 09:43:46;;;;;;;5.97;2.30;;;19.40;74.70;20.20;100471.00;;;;5072311;28;20219;-53
2023/10/14 09:46:12;;;;;;;7.93;2.70;;;19.40;74.80;20.20;100450.00;;;;5071321;28;20206;-53
2023/10/14 09:48:40;;;;;;;7.07;2.43;;;19.40;74.70;20.20;100474.00;;;;5065532;28;20183;-52
2023/10/14 09:51:07;;;;;;;7.47;2.20;;;19.40;74.70;20.20;100470.00;;;;5082823;28;20651;-54
2023/10/14 09:53:36;;;;;;;5.73;2.60;;;19.50;74.80;20.20;100468.00;;;;5069310;28;20166;-53
2023/10/14 09:56:04;;;;;;;5.67;2.27;;;19.40;74.90;20.20;100476.00;;;;5072092;28;20556;-53
2023/10/14 09:58:34;;;;;;;8.07;2.37;;;19.50;75.10;20.20;100467.00;;;;5066507;28;20264;-53
2023/10/14 10:01:06;;;;;;;5.10;2.30;;;19.50;75.00;20.20;100473.00;;;;5072440;28;20239;-53
2023/10/14 10:03:44;;;;;;;7.43;2.37;;;19.50;75.10;20.20;100468.00;;;;5075512;28;20183;-54
2023/10/14 10:06:53;;;;;;;7.23;2.50;;;19.50;75.30;20.20;100476.00;;;;5082719;28;20207;-53
2023/10/14 10:09:47;;;;;;;7.43;2.40;;;19.50;75.40;20.20;100479.00;;;;5066597;28;20176;-53
2023/10/14 10:12:14;;;;;;;6.00;2.50;;;19.50;75.70;20.20;100483.00;;;;5071903;28;20187;-53
2023/10/14 10:14:46;;;;;;;6.03;2.27;;;19.50;76.00;20.20;100476.00;;;;5070329;28;20169;-52
2023/10/14 10:17:12;;;;;;;4.23;2.40;;;19.50;75.70;20.20;100486.00;;;;5072008;28;20188;-53
2023/10/14 10:20:25;;;;;;;6.50;2.47;;;19.50;75.70;20.20;100485.00;;;;5065750;28;20210;-53
2023/10/14 10:22:52;;;;;;;7.30;2.50;;;19.50;75.80;20.20;100495.00;;;;5071420;28;20273;-53
2023/10/14 10:25:36;;;;;;;8.40;2.20;;;19.50;76.00;20.20;100498.00;;;;5071758;28;20261;-52
2023/10/14 10:28:27;;;;;;;3.80;1.90;;;19.50;76.10;20.20;100496.00;;;;5068893;28;20570;-53
2023/10/14 10:30:58;;;;;;;4.30;2.30;;;19.50;76.10;20.20;100499.00;;;;5056037;28;20209;-53
2023/10/14 10:33:51;;;;;;;5.00;2.67;;;19.50;76.20;20.20;100504.00;;;;5070976;28;20185;-54
2023/10/14 10:36:31;;;;;;;5.70;2.23;;;19.50;76.30;20.20;100508.00;;;;5055122;28;20183;-53
2023/10/14 10:39:15;;;;;;;5.93;2.10;;;19.50;76.30;20.20;100504.00;;;;5046791;28;20178;-53
2023/10/14 10:41:41;;;;;;;5.17;2.30;;;19.50;76.20;20.20;100515.00;;;;5064881;28;20197;-53
2023/10/14 10:44:09;;;;;;;4.63;2.30;;;19.50;76.50;20.20;100498.00;;;;5061684;28;20170;-53
2023/10/14 10:46:46;;;;;;;5.93;2.20;;;19.50;76.50;20.20;100511.00;;;;5057678;28;20229;-52
2023/10/14 10:49:14;;;;;;;3.37;2.13;;;19.50;76.40;20.20;100511.00;;;;5060267;28;20263;-53
2023/10/14 10:52:07;;;;;;;4.57;2.10;;;19.40;76.30;20.20;100514.00;;;;5070723;28;20563;-53
2023/10/14 10:54:33;;;;;;;5.47;2.47;;;19.50;76.50;20.20;100508.00;;;;5068027;28;20579;-53
2023/10/14 10:57:02;;;;;;;4.17;2.20;;;19.50;76.40;20.20;100522.00;;;;5075214;28;20250;-53
2023/10/14 10:59:28;;;;;;;3.77;2.33;;;19.50;76.30;20.20;100518.00;;;;5057729;28;20184;-53
2023/10/14 11:01:56;;;;;;;3.20;2.00;;;19.60;76.20;20.20;100520.00;;;;5070201;28;20183;-53
2023/10/14 11:04:22;;;;;;;4.37;2.30;;;19.50;76.00;20.30;100531.00;;;;5055991;28;20180;-54
2023/10/14 11:06:51;;;;;;;3.27;2.03;;;19.50;76.00;20.30;100511.00;;;;5062617;28;20195;-53
2023/10/14 11:09:17;;;;;;;2.90;1.90;;;19.60;76.00;20.30;100528.00;;;;5064875;28;20189;-53
2023/10/14 11:11:43;;;;;;;3.37;2.00;;;19.60;76.00;20.30;100458.00;;;;5070330;28;20177;-54
2023/10/14 11:14:17;;;;;;;4.60;2.10;;;19.60;76.00;20.30;100519.00;;;;5070152;28;20184;-52
2023/10/14 11:16:52;;;;;;;3.97;2.00;;;19.60;75.90;20.30;100533.00;;;;5055712;28;20192;-53
2023/10/14 11:19:20;;;;;;;5.07;2.00;;;19.60;75.80;20.30;100532.00;;;;5063241;28;20208;-54
2023/10/14 11:21:49;;;;;;;3.07;2.00;;;19.60;75.80;20.30;100528.00;;;;5069458;28;20177;-51
2023/10/14 11:24:15;;;;;;;1.97;1.50;;;19.60;75.80;20.30;100522.00;;;;5077372;28;20178;-53
2023/10/14 11:26:44;;;;;;;4.30;2.07;;;19.60;75.80;20.30;100528.00;;;;5070604;28;20208;-54
2023/10/14 11:29:10;;;;;;;3.33;2.07;;;19.60;75.60;20.30;100523.00;;;;5055179;28;20251;-53
2023/10/14 11:31:39;;;;;;;4.33;2.10;;;19.60;75.60;20.40;100519.00;;;;5070287;28;20198;-52
2023/10/14 11:34:06;;;;;;;2.97;2.00;;;19.60;75.70;20.40;100515.00;;;;5063714;28;20183;-53